createdAt,value
2022-08-26T00:00:46.148Z,0.00
2022-08-26T00:01:46.171Z,0.00
2022-08-26T00:02:46.130Z,0.00
2022-08-26T00:03:46.163Z,0.00
2022-08-26T00:04:46.129Z,0.00
2022-08-26T00:05:46.102Z,0.00
2022-08-26T00:06:46.539Z,0.00
2022-08-26T00:07:46.088Z,0.00
2022-08-26T00:08:46.093Z,0.00
2022-08-26T00:09:47.495Z,0.00
2022-08-26T00:10:46.060Z,0.00
2022-08-26T00:11:46.053Z,0.00
2022-08-26T00:12:46.141Z,0.00
2022-08-26T00:13:47.935Z,0.00
2022-08-26T00:14:46.033Z,0.00
2022-08-26T00:15:46.014Z,0.00
2022-08-26T00:16:47.271Z,0.00
2022-08-26T00:17:45.987Z,0.00
2022-08-26T00:18:45.994Z,0.00
2022-08-26T00:19:46.004Z,0.00
2022-08-26T00:20:45.987Z,0.00
2022-08-26T00:21:45.963Z,0.00
2022-08-26T00:22:45.957Z,0.00
2022-08-26T00:23:45.950Z,0.00
2022-08-26T00:24:48.077Z,0.00
2022-08-26T00:25:45.930Z,0.00
2022-08-26T00:26:45.933Z,0.00
2022-08-26T00:27:45.914Z,0.00
2022-08-26T00:28:45.910Z,0.00
2022-08-26T00:29:45.924Z,0.00
2022-08-26T00:30:45.898Z,0.00
2022-08-26T00:31:45.923Z,0.00
2022-08-26T00:32:46.342Z,0.00
2022-08-26T00:33:45.853Z,0.00
2022-08-26T00:34:45.878Z,0.00
2022-08-26T00:35:45.850Z,0.00
2022-08-26T00:36:45.836Z,0.00
2022-08-26T00:37:45.826Z,0.00
2022-08-26T00:38:45.819Z,0.00
2022-08-26T00:39:45.839Z,0.00
2022-08-26T00:40:45.812Z,0.00
2022-08-26T00:41:45.794Z,0.00
2022-08-26T00:42:45.905Z,0.00
2022-08-26T00:43:47.299Z,0.00
2022-08-26T00:44:45.786Z,0.00
2022-08-26T00:45:45.805Z,0.00
2022-08-26T00:46:46.982Z,0.00
2022-08-26T00:47:45.747Z,0.00
2022-08-26T00:48:45.740Z,0.00
2022-08-26T00:49:45.736Z,0.00
2022-08-26T00:50:45.723Z,0.00
2022-08-26T00:51:45.717Z,0.00
2022-08-26T00:52:45.708Z,0.00
2022-08-26T00:53:45.700Z,0.00
2022-08-26T00:54:45.708Z,0.00
2022-08-26T00:55:45.682Z,0.00
2022-08-26T00:56:47.085Z,0.00
2022-08-26T00:57:45.660Z,0.00
2022-08-26T00:58:45.659Z,0.00
2022-08-26T00:59:45.674Z,0.00
2022-08-26T01:00:45.662Z,0.00
2022-08-26T01:01:45.941Z,0.00
2022-08-26T01:02:46.829Z,0.00
2022-08-26T01:03:45.629Z,0.00
2022-08-26T01:04:45.643Z,0.00
2022-08-26T01:05:45.589Z,0.00
2022-08-26T01:06:45.581Z,0.00
2022-08-26T01:07:45.576Z,0.00
2022-08-26T01:08:45.572Z,0.00
2022-08-26T01:09:45.577Z,0.00
2022-08-26T01:10:45.549Z,0.00
2022-08-26T01:11:45.540Z,0.00
2022-08-26T01:12:45.557Z,0.00
2022-08-26T01:13:45.518Z,0.00
2022-08-26T01:14:46.516Z,0.00
2022-08-26T01:15:45.505Z,0.00
2022-08-26T01:16:45.551Z,0.00
2022-08-26T01:17:45.472Z,0.00
2022-08-26T01:18:45.483Z,0.00
2022-08-26T01:19:45.486Z,0.00
2022-08-26T01:20:45.465Z,0.00
2022-08-26T01:21:45.453Z,0.00
2022-08-26T01:22:45.465Z,0.00
2022-08-26T01:23:45.439Z,0.00
2022-08-26T01:24:45.456Z,0.00
2022-08-26T01:25:45.410Z,0.00
2022-08-26T01:26:45.403Z,0.00
2022-08-26T01:27:45.398Z,0.00
2022-08-26T01:28:45.385Z,0.00
2022-08-26T01:29:45.399Z,0.00
2022-08-26T01:30:45.373Z,0.00
2022-08-26T01:31:45.426Z,0.00
2022-08-26T01:32:45.348Z,0.00
2022-08-26T01:33:45.335Z,0.00
2022-08-26T01:34:45.356Z,0.00
2022-08-26T01:35:45.324Z,0.00
2022-08-26T01:36:50.605Z,0.00
2022-08-26T01:37:46.290Z,0.00
2022-08-26T01:38:45.299Z,0.00
2022-08-26T01:39:45.312Z,0.00
2022-08-26T01:40:45.280Z,0.00
2022-08-26T01:41:45.256Z,0.00
2022-08-26T01:42:45.257Z,0.00
2022-08-26T01:43:45.235Z,0.00
2022-08-26T01:44:45.265Z,0.00
2022-08-26T01:45:45.290Z,0.00
2022-08-26T01:46:45.218Z,0.00
2022-08-26T01:47:45.212Z,0.00
2022-08-26T01:48:45.199Z,0.00
2022-08-26T01:49:45.205Z,0.00
2022-08-26T01:50:45.182Z,0.00
2022-08-26T01:51:45.169Z,0.00
2022-08-26T01:52:45.168Z,0.00
2022-08-26T01:53:46.113Z,0.00
2022-08-26T01:54:46.321Z,0.00
2022-08-26T01:55:46.135Z,0.00
2022-08-26T01:56:45.132Z,0.00
2022-08-26T01:57:45.112Z,0.00
2022-08-26T01:58:45.106Z,0.00
2022-08-26T01:59:45.112Z,0.00
2022-08-26T02:00:45.114Z,0.00
2022-08-26T02:01:45.070Z,0.00
2022-08-26T02:02:45.070Z,0.00
2022-08-26T02:03:45.069Z,0.00
2022-08-26T02:04:45.161Z,0.00
2022-08-26T02:05:45.033Z,0.00
2022-08-26T02:06:45.028Z,0.00
2022-08-26T02:07:45.020Z,0.00
2022-08-26T02:08:45.010Z,0.00
2022-08-26T02:09:45.017Z,0.00
2022-08-26T02:10:44.988Z,0.00
2022-08-26T02:11:44.984Z,0.00
2022-08-26T02:12:44.969Z,0.00
2022-08-26T02:13:44.967Z,0.00
2022-08-26T02:14:44.969Z,0.00
2022-08-26T02:15:44.978Z,0.00
2022-08-26T02:16:44.958Z,0.00
2022-08-26T02:17:44.925Z,0.00
2022-08-26T02:18:44.909Z,0.00
2022-08-26T02:19:44.923Z,0.00
2022-08-26T02:20:44.897Z,0.00
2022-08-26T02:21:44.888Z,0.00
2022-08-26T02:22:45.184Z,0.00
2022-08-26T02:23:44.864Z,0.00
2022-08-26T02:24:44.866Z,0.00
2022-08-26T02:25:44.847Z,0.00
2022-08-26T02:26:44.836Z,0.00
2022-08-26T02:27:44.820Z,0.00
2022-08-26T02:28:44.800Z,0.00
2022-08-26T02:29:44.821Z,0.00
2022-08-26T02:30:44.793Z,0.00
2022-08-26T02:31:44.835Z,0.00
2022-08-26T02:32:44.770Z,0.00
2022-08-26T02:33:44.767Z,0.00
2022-08-26T02:34:44.779Z,0.00
2022-08-26T02:35:44.747Z,0.00
2022-08-26T02:36:44.729Z,0.00
2022-08-26T02:37:44.720Z,0.00
2022-08-26T02:38:44.721Z,0.00
2022-08-26T02:39:44.727Z,0.00
2022-08-26T02:40:44.684Z,0.00
2022-08-26T02:41:45.137Z,0.00
2022-08-26T02:42:44.676Z,0.00
2022-08-26T02:43:44.690Z,0.00
2022-08-26T02:44:44.667Z,0.00
2022-08-26T02:45:44.642Z,0.00
2022-08-26T02:46:47.091Z,0.00
2022-08-26T02:47:44.623Z,0.00
2022-08-26T02:48:44.627Z,0.00
2022-08-26T02:49:44.629Z,0.00
2022-08-26T02:50:44.610Z,0.00
2022-08-26T02:51:44.593Z,0.00
2022-08-26T02:52:44.575Z,0.00
2022-08-26T02:53:44.567Z,0.00
2022-08-26T02:54:44.588Z,0.00
2022-08-26T02:55:44.556Z,0.00
2022-08-26T02:56:44.531Z,0.00
2022-08-26T02:57:44.529Z,0.00
2022-08-26T02:58:44.522Z,0.00
2022-08-26T02:59:44.522Z,0.00
2022-08-26T03:00:52.805Z,0.00
2022-08-26T03:01:45.522Z,0.00
2022-08-26T03:02:44.480Z,0.00
2022-08-26T03:03:44.460Z,0.00
2022-08-26T03:04:58.067Z,0.00
2022-08-26T03:05:45.450Z,0.00
2022-08-26T03:06:47.038Z,0.00
2022-08-26T03:07:44.441Z,0.00
2022-08-26T03:08:44.422Z,0.00
2022-08-26T03:09:44.435Z,0.00
2022-08-26T03:10:44.394Z,0.00
2022-08-26T03:11:44.396Z,0.00
2022-08-26T03:12:44.376Z,0.00
2022-08-26T03:13:44.366Z,0.00
2022-08-26T03:14:44.378Z,0.00
2022-08-26T03:15:44.392Z,0.00
2022-08-26T03:16:44.340Z,0.00
2022-08-26T03:17:44.335Z,0.00
2022-08-26T03:18:44.320Z,0.00
2022-08-26T03:19:44.317Z,0.00
2022-08-26T03:20:44.573Z,0.00
2022-08-26T03:21:44.287Z,0.00
2022-08-26T03:22:44.280Z,0.00
2022-08-26T03:23:44.268Z,0.00
2022-08-26T03:24:46.110Z,0.00
2022-08-26T03:25:44.264Z,0.00
2022-08-26T03:26:52.017Z,0.00
2022-08-26T03:27:44.226Z,0.00
2022-08-26T03:28:44.218Z,0.00
2022-08-26T03:29:44.203Z,0.00
2022-08-26T03:30:45.786Z,0.00
2022-08-26T03:31:44.254Z,0.00
2022-08-26T03:32:44.181Z,0.00
2022-08-26T03:33:44.182Z,0.00
2022-08-26T03:34:44.164Z,0.00
2022-08-26T03:35:44.168Z,0.00
2022-08-26T03:36:44.139Z,0.00
2022-08-26T03:37:44.133Z,0.00
2022-08-26T03:38:44.122Z,0.00
2022-08-26T03:39:44.096Z,0.00
2022-08-26T03:40:44.115Z,0.00
2022-08-26T03:41:44.090Z,0.00
2022-08-26T03:42:45.269Z,0.00
2022-08-26T03:43:44.078Z,0.00
2022-08-26T03:44:44.060Z,0.00
2022-08-26T03:45:44.071Z,4.00
2022-08-26T03:46:44.205Z,4.00
2022-08-26T03:47:44.024Z,0.00
2022-08-26T03:48:44.024Z,0.00
2022-08-26T03:49:44.014Z,4.00
2022-08-26T03:50:44.019Z,4.00
2022-08-26T03:51:43.994Z,0.00
2022-08-26T03:52:44.278Z,4.00
2022-08-26T03:53:43.969Z,4.00
2022-08-26T03:54:43.960Z,4.00
2022-08-26T03:55:43.965Z,4.00
2022-08-26T03:56:43.941Z,8.00
2022-08-26T03:57:43.956Z,8.00
2022-08-26T03:58:43.918Z,8.00
2022-08-26T03:59:43.914Z,12.00
2022-08-26T04:00:43.923Z,12.00
2022-08-26T04:01:43.979Z,12.00
2022-08-26T04:02:43.921Z,16.00
2022-08-26T04:03:43.870Z,20.00
2022-08-26T04:04:43.887Z,24.00
2022-08-26T04:05:43.869Z,24.00
2022-08-26T04:06:44.625Z,32.00
2022-08-26T04:07:43.829Z,36.00
2022-08-26T04:08:43.821Z,44.00
2022-08-26T04:09:43.818Z,48.00
2022-08-26T04:10:43.828Z,56.00
2022-08-26T04:11:43.816Z,64.00
2022-08-26T04:12:44.789Z,76.00
2022-08-26T04:13:43.833Z,92.00
2022-08-26T04:14:43.766Z,104.00
2022-08-26T04:15:43.834Z,124.00
2022-08-26T04:16:43.741Z,144.00
2022-08-26T04:17:43.731Z,160.00
2022-08-26T04:18:46.808Z,184.00
2022-08-26T04:19:43.702Z,204.00
2022-08-26T04:20:43.717Z,228.00
2022-08-26T04:21:43.689Z,252.00
2022-08-26T04:22:43.679Z,280.00
2022-08-26T04:23:47.185Z,308.00
2022-08-26T04:24:43.660Z,332.00
2022-08-26T04:25:43.671Z,364.00
2022-08-26T04:26:43.928Z,392.00
2022-08-26T04:27:43.619Z,420.00
2022-08-26T04:28:43.615Z,452.00
2022-08-26T04:29:43.607Z,480.00
2022-08-26T04:30:43.616Z,512.00
2022-08-26T04:31:43.647Z,544.00
2022-08-26T04:32:43.582Z,580.00
2022-08-26T04:33:43.559Z,616.00
2022-08-26T04:34:43.552Z,648.00
2022-08-26T04:35:43.564Z,688.00
2022-08-26T04:36:43.530Z,724.00
2022-08-26T04:37:43.530Z,760.00
2022-08-26T04:38:43.506Z,796.00
2022-08-26T04:39:43.500Z,832.00
2022-08-26T04:40:43.548Z,864.00
2022-08-26T04:41:43.481Z,908.00
2022-08-26T04:42:43.470Z,948.00
2022-08-26T04:43:43.452Z,996.00
2022-08-26T04:44:43.454Z,1044.00
2022-08-26T04:45:43.465Z,1088.00
2022-08-26T04:46:43.841Z,1140.00
2022-08-26T04:47:44.790Z,1188.00
2022-08-26T04:48:43.413Z,1240.00
2022-08-26T04:49:43.403Z,1296.00
2022-08-26T04:50:43.413Z,1348.00
2022-08-26T04:51:43.942Z,1408.00
2022-08-26T04:52:43.389Z,1456.00
2022-08-26T04:53:43.359Z,1508.00
2022-08-26T04:54:44.352Z,1556.00
2022-08-26T04:55:45.026Z,1600.00
2022-08-26T04:56:43.341Z,1640.00
2022-08-26T04:57:43.316Z,1676.00
2022-08-26T04:58:43.328Z,1704.00
2022-08-26T04:59:43.313Z,1732.00
2022-08-26T05:00:43.306Z,1764.00
2022-08-26T05:01:43.336Z,1792.00
2022-08-26T05:02:43.270Z,1820.00
2022-08-26T05:03:43.323Z,1852.00
2022-08-26T05:04:43.251Z,1880.00
2022-08-26T05:05:43.256Z,1900.00
2022-08-26T05:06:43.227Z,1916.00
2022-08-26T05:07:43.253Z,1948.00
2022-08-26T05:08:43.231Z,2012.00
2022-08-26T05:09:43.203Z,2080.00
2022-08-26T05:10:43.572Z,2152.00
2022-08-26T05:11:43.173Z,2224.00
2022-08-26T05:12:43.172Z,2308.00
2022-08-26T05:13:43.156Z,2392.00
2022-08-26T05:14:43.150Z,2472.00
2022-08-26T05:15:43.177Z,2540.00
2022-08-26T05:16:43.122Z,2604.00
2022-08-26T05:17:43.113Z,2684.00
2022-08-26T05:18:43.107Z,2772.00
2022-08-26T05:19:43.180Z,2836.00
2022-08-26T05:20:43.310Z,2884.00
2022-08-26T05:21:43.073Z,2952.00
2022-08-26T05:22:43.053Z,3020.00
2022-08-26T05:23:43.049Z,3140.00
2022-08-26T05:24:43.948Z,3272.00
2022-08-26T05:25:43.051Z,3420.00
2022-08-26T05:26:43.057Z,3516.00
2022-08-26T05:27:43.045Z,3580.00
2022-08-26T05:28:43.001Z,3624.00
2022-08-26T05:29:42.993Z,3672.00
2022-08-26T05:30:43.014Z,3728.00
2022-08-26T05:31:42.975Z,3772.00
2022-08-26T05:32:42.952Z,3808.00
2022-08-26T05:33:42.952Z,3760.00
2022-08-26T05:34:43.150Z,3784.00
2022-08-26T05:35:42.957Z,3880.00
2022-08-26T05:36:42.921Z,3924.00
2022-08-26T05:37:42.915Z,3980.00
2022-08-26T05:38:42.908Z,4032.00
2022-08-26T05:39:43.507Z,4072.00
2022-08-26T05:40:43.898Z,4132.00
2022-08-26T05:41:42.873Z,4200.00
2022-08-26T05:42:42.854Z,4240.00
2022-08-26T05:43:42.848Z,4276.00
2022-08-26T05:44:55.829Z,4324.00
2022-08-26T05:45:46.132Z,4340.00
2022-08-26T05:46:44.034Z,4360.00
2022-08-26T05:47:42.816Z,4408.00
2022-08-26T05:48:44.356Z,4488.00
2022-08-26T05:49:43.783Z,4584.00
2022-08-26T05:50:42.803Z,4656.00
2022-08-26T05:51:42.781Z,4720.00
2022-08-26T05:52:42.761Z,4752.00
2022-08-26T05:53:43.863Z,4736.00
2022-08-26T05:54:43.752Z,4748.00
2022-08-26T05:55:42.754Z,4776.00
2022-08-26T05:56:43.102Z,4808.00
2022-08-26T05:57:42.845Z,4884.00
2022-08-26T05:58:42.688Z,4916.00
2022-08-26T05:59:42.691Z,5028.00
2022-08-26T06:00:42.697Z,5120.00
2022-08-26T06:01:42.772Z,5212.00
2022-08-26T06:02:42.675Z,5280.00
2022-08-26T06:03:42.653Z,5336.00
2022-08-26T06:04:42.638Z,5372.00
2022-08-26T06:05:42.653Z,5424.00
2022-08-26T06:06:42.854Z,5576.00
2022-08-26T06:07:42.615Z,5640.00
2022-08-26T06:08:42.601Z,5692.00
2022-08-26T06:09:42.597Z,5768.00
2022-08-26T06:10:42.615Z,5884.00
2022-08-26T06:11:42.579Z,6004.00
2022-08-26T06:12:42.565Z,6060.00
2022-08-26T06:13:42.555Z,6112.00
2022-08-26T06:14:42.545Z,6180.00
2022-08-26T06:15:42.588Z,6196.00
2022-08-26T06:16:42.525Z,6272.00
2022-08-26T06:17:42.533Z,6396.00
2022-08-26T06:18:42.504Z,6464.00
2022-08-26T06:19:42.496Z,6508.00
2022-08-26T06:20:42.484Z,6580.00
2022-08-26T06:21:42.498Z,6596.00
2022-08-26T06:22:42.464Z,6708.00
2022-08-26T06:23:42.453Z,6772.00
2022-08-26T06:24:42.444Z,6776.00
2022-08-26T06:25:42.446Z,6788.00
2022-08-26T06:26:42.656Z,6808.00
2022-08-26T06:27:42.425Z,6840.00
2022-08-26T06:28:43.566Z,6920.00
2022-08-26T06:29:42.397Z,6936.00
2022-08-26T06:30:42.450Z,7020.00
2022-08-26T06:31:42.410Z,6916.00
2022-08-26T06:32:42.371Z,6876.00
2022-08-26T06:33:42.365Z,6948.00
2022-08-26T06:34:42.348Z,6920.00
2022-08-26T06:35:42.345Z,6888.00
2022-08-26T06:36:42.351Z,6996.00
2022-08-26T06:37:42.324Z,7060.00
2022-08-26T06:38:42.320Z,7140.00
2022-08-26T06:39:42.311Z,7368.00
2022-08-26T06:40:42.308Z,7444.00
2022-08-26T06:41:43.465Z,7508.00
2022-08-26T06:42:43.283Z,7588.00
2022-08-26T06:43:42.277Z,7620.00
2022-08-26T06:44:44.730Z,7600.00
2022-08-26T06:45:42.258Z,7576.00
2022-08-26T06:46:42.280Z,7536.00
2022-08-26T06:47:42.239Z,7528.00
2022-08-26T06:48:42.237Z,7644.00
2022-08-26T06:49:42.224Z,7716.00
2022-08-26T06:50:42.206Z,7736.00
2022-08-26T06:51:42.225Z,7760.00
2022-08-26T06:52:42.195Z,7904.00
2022-08-26T06:53:42.182Z,8008.00
2022-08-26T06:54:42.183Z,8092.00
2022-08-26T06:55:42.203Z,8184.00
2022-08-26T06:56:42.179Z,8276.00
2022-08-26T06:57:42.157Z,8408.00
2022-08-26T06:58:42.149Z,8536.00
2022-08-26T06:59:42.138Z,8608.00
2022-08-26T07:00:42.128Z,8592.00
2022-08-26T07:01:43.762Z,8584.00
2022-08-26T07:02:46.975Z,8532.00
2022-08-26T07:03:43.104Z,8528.00
2022-08-26T07:04:42.102Z,8648.00
2022-08-26T07:05:42.097Z,8676.00
2022-08-26T07:06:43.206Z,8720.00
2022-08-26T07:07:42.061Z,8748.00
2022-08-26T07:08:42.072Z,8836.00
2022-08-26T07:09:42.058Z,8988.00
2022-08-26T07:10:42.050Z,9084.00
2022-08-26T07:11:42.055Z,9168.00
2022-08-26T07:12:42.032Z,9224.00
2022-08-26T07:13:43.018Z,9340.00
2022-08-26T07:14:43.881Z,9380.00
2022-08-26T07:15:43.058Z,9520.00
2022-08-26T07:16:42.019Z,9616.00
2022-08-26T07:17:41.982Z,9708.00
2022-08-26T07:18:41.975Z,9744.00
2022-08-26T07:19:41.975Z,9760.00
2022-08-26T07:20:42.389Z,9784.00
2022-08-26T07:21:41.963Z,9752.00
2022-08-26T07:22:41.934Z,9632.00
2022-08-26T07:23:41.919Z,9556.00
2022-08-26T07:24:42.489Z,9580.00
2022-08-26T07:25:42.819Z,9492.00
2022-08-26T07:26:43.091Z,9524.00
2022-08-26T07:27:41.884Z,9568.00
2022-08-26T07:28:41.882Z,9608.00
2022-08-26T07:29:41.876Z,9624.00
2022-08-26T07:30:41.899Z,9676.00
2022-08-26T07:31:42.686Z,9712.00
2022-08-26T07:32:41.876Z,9692.00
2022-08-26T07:33:41.812Z,9804.00
2022-08-26T07:34:41.975Z,9848.00
2022-08-26T07:35:41.801Z,9804.00
2022-08-26T07:36:42.813Z,9696.00
2022-08-26T07:37:41.811Z,9484.00
2022-08-26T07:38:41.785Z,9320.00
2022-08-26T07:39:41.776Z,9212.00
2022-08-26T07:40:41.759Z,9320.00
2022-08-26T07:41:41.768Z,9404.00
2022-08-26T07:42:41.747Z,9464.00
2022-08-26T07:43:41.719Z,9552.00
2022-08-26T07:44:41.712Z,9572.00
2022-08-26T07:45:41.699Z,9596.00
2022-08-26T07:46:41.710Z,9644.00
2022-08-26T07:47:41.694Z,9480.00
2022-08-26T07:48:41.678Z,9508.00
2022-08-26T07:49:41.743Z,9604.00
2022-08-26T07:50:50.488Z,9420.00
2022-08-26T07:51:42.665Z,9460.00
2022-08-26T07:52:42.554Z,9452.00
2022-08-26T07:53:42.445Z,9452.00
2022-08-26T07:54:41.608Z,9324.00
2022-08-26T07:55:41.598Z,9124.00
2022-08-26T07:56:41.625Z,8824.00
2022-08-26T07:57:41.629Z,8440.00
2022-08-26T07:58:41.570Z,7872.00
2022-08-26T07:59:41.562Z,7672.00
2022-08-26T08:00:41.550Z,7376.00
2022-08-26T08:01:41.635Z,7148.00
2022-08-26T08:02:41.528Z,6936.00
2022-08-26T08:03:41.521Z,6848.00
2022-08-26T08:04:41.560Z,6772.00
2022-08-26T08:05:41.558Z,6660.00
2022-08-26T08:06:41.508Z,6600.00
2022-08-26T08:07:45.212Z,6588.00
2022-08-26T08:08:41.468Z,6588.00
2022-08-26T08:09:41.452Z,6656.00
2022-08-26T08:10:41.455Z,6684.00
2022-08-26T08:11:42.460Z,6740.00
2022-08-26T08:12:41.418Z,6664.00
2022-08-26T08:13:41.428Z,6688.00
2022-08-26T08:14:41.402Z,6728.00
2022-08-26T08:15:41.397Z,6876.00
2022-08-26T08:16:45.916Z,6992.00
2022-08-26T08:17:42.377Z,7136.00
2022-08-26T08:18:41.638Z,7432.00
2022-08-26T08:19:41.392Z,7712.00
2022-08-26T08:20:44.676Z,7592.00
2022-08-26T08:21:42.347Z,7476.00
2022-08-26T08:22:41.320Z,7984.00
2022-08-26T08:23:41.307Z,8072.00
2022-08-26T08:24:41.305Z,8204.00
2022-08-26T08:25:41.299Z,8464.00
2022-08-26T08:26:41.293Z,8876.00
2022-08-26T08:27:41.271Z,9052.00
2022-08-26T08:28:41.254Z,9184.00
2022-08-26T08:29:41.248Z,9632.00
2022-08-26T08:30:41.271Z,9788.00
2022-08-26T08:31:58.038Z,10020.00
2022-08-26T08:32:43.217Z,10116.00
2022-08-26T08:33:41.199Z,10104.00
2022-08-26T08:35:41.180Z,10764.00
2022-08-26T08:36:41.622Z,10848.00
2022-08-26T08:37:41.154Z,10892.00
2022-08-26T08:38:41.144Z,11284.00
2022-08-26T08:41:26.264Z,11500.00
2022-08-26T08:42:26.266Z,11040.00
2022-08-26T08:43:26.258Z,11332.00
2022-08-26T08:45:27.382Z,11412.00
2022-08-26T08:46:27.394Z,11564.00
2022-08-26T08:47:27.331Z,11624.00
2022-08-26T08:48:27.771Z,11640.00
2022-08-26T08:49:27.325Z,11672.00
2022-08-26T08:50:27.334Z,11648.00
2022-08-26T08:51:27.315Z,11608.00
2022-08-26T08:52:27.285Z,11584.00
2022-08-26T08:53:27.284Z,11348.00
2022-08-26T08:54:27.278Z,11224.00
2022-08-26T08:55:27.272Z,11120.00
2022-08-26T08:56:27.281Z,11020.00
2022-08-26T08:57:27.256Z,10728.00
2022-08-26T08:58:27.243Z,10628.00
2022-08-26T08:59:27.236Z,10784.00
2022-08-26T09:00:30.640Z,10760.00
2022-08-26T09:01:27.260Z,10768.00
2022-08-26T09:02:27.275Z,10608.00
2022-08-26T09:03:27.187Z,10668.00
2022-08-26T09:04:27.184Z,10912.00
2022-08-26T09:05:27.172Z,11412.00
2022-08-26T09:06:27.715Z,11752.00
2022-08-26T09:07:27.144Z,11980.00
2022-08-26T09:08:27.143Z,12068.00
2022-08-26T09:09:27.134Z,12120.00
2022-08-26T09:10:27.127Z,12168.00
2022-08-26T09:11:27.133Z,12200.00
2022-08-26T09:12:29.753Z,12208.00
2022-08-26T09:13:28.677Z,12200.00
2022-08-26T09:14:27.079Z,12184.00
2022-08-26T09:15:30.164Z,12116.00
2022-08-26T09:16:27.135Z,12076.00
2022-08-26T09:17:27.061Z,12120.00
2022-08-26T09:18:27.055Z,11412.00
2022-08-26T09:19:27.037Z,11780.00
2022-08-26T09:20:27.036Z,11852.00
2022-08-26T09:21:27.057Z,11928.00
2022-08-26T09:22:27.011Z,11908.00
2022-08-26T09:23:27.004Z,11868.00
2022-08-26T09:24:28.354Z,11356.00
2022-08-26T09:25:26.985Z,10808.00
2022-08-26T09:26:29.357Z,10676.00
2022-08-26T09:27:26.939Z,10652.00
2022-08-26T09:28:26.958Z,11520.00
2022-08-26T09:29:26.958Z,11712.00
2022-08-26T09:30:28.703Z,11764.00
2022-08-26T09:31:27.121Z,11772.00
2022-08-26T09:32:26.931Z,11748.00
2022-08-26T09:33:26.904Z,11704.00
2022-08-26T09:34:26.895Z,11656.00
2022-08-26T09:35:26.883Z,11608.00
2022-08-26T09:36:26.872Z,11572.00
2022-08-26T09:37:26.895Z,11524.00
2022-08-26T09:38:28.021Z,11488.00
2022-08-26T09:39:27.051Z,11536.00
2022-08-26T09:40:27.293Z,11480.00
2022-08-26T09:41:26.832Z,11380.00
2022-08-26T09:42:26.845Z,11432.00
2022-08-26T09:43:26.822Z,11440.00
2022-08-26T09:44:26.817Z,11452.00
2022-08-26T09:45:26.806Z,11436.00
2022-08-26T09:46:26.907Z,11412.00
2022-08-26T09:47:26.784Z,11384.00
2022-08-26T09:48:26.779Z,11360.00
2022-08-26T09:49:26.770Z,11352.00
2022-08-26T09:50:28.835Z,11348.00
2022-08-26T09:51:26.732Z,11360.00
2022-08-26T09:52:26.760Z,11304.00
2022-08-26T09:53:30.422Z,11288.00
2022-08-26T09:54:30.171Z,11288.00
2022-08-26T09:55:27.707Z,11296.00
2022-08-26T09:56:27.695Z,11280.00
2022-08-26T09:57:26.691Z,11280.00
2022-08-26T09:58:26.684Z,11272.00
2022-08-26T09:59:26.673Z,11240.00
2022-08-26T10:00:26.688Z,11216.00
2022-08-26T10:01:26.689Z,11216.00
2022-08-26T10:02:26.644Z,11192.00
2022-08-26T10:03:26.619Z,10608.00
2022-08-26T10:04:27.005Z,10368.00
2022-08-26T10:05:26.611Z,9876.00
2022-08-26T10:06:26.628Z,9888.00
2022-08-26T10:07:26.598Z,10068.00
2022-08-26T10:08:26.585Z,9352.00
2022-08-26T10:09:26.580Z,8896.00
2022-08-26T10:10:26.574Z,8760.00
2022-08-26T10:11:28.172Z,8896.00
2022-08-26T10:12:26.547Z,9592.00
2022-08-26T10:13:26.537Z,9632.00
2022-08-26T10:14:26.592Z,9600.00
2022-08-26T10:15:26.508Z,9624.00
2022-08-26T10:16:28.610Z,10712.00
2022-08-26T10:17:26.497Z,10848.00
2022-08-26T10:18:27.950Z,10972.00
2022-08-26T10:19:29.283Z,11020.00
2022-08-26T10:20:27.485Z,11080.00
2022-08-26T10:21:26.478Z,11072.00
2022-08-26T10:22:26.449Z,11072.00
2022-08-26T10:23:26.495Z,11124.00
2022-08-26T10:24:26.433Z,11072.00
2022-08-26T10:25:26.422Z,11068.00
2022-08-26T10:26:26.421Z,10772.00
2022-08-26T10:27:26.408Z,10336.00
2022-08-26T10:28:26.391Z,10664.00
2022-08-26T10:29:26.387Z,10844.00
2022-08-26T10:30:26.400Z,11488.00
2022-08-26T10:31:27.773Z,11580.00
2022-08-26T10:32:26.401Z,11620.00
2022-08-26T10:33:26.350Z,11704.00
2022-08-26T10:34:26.334Z,11744.00
2022-08-26T10:35:26.324Z,11784.00
2022-08-26T10:36:26.339Z,11808.00
2022-08-26T10:37:26.310Z,11832.00
2022-08-26T10:38:26.295Z,11844.00
2022-08-26T10:39:26.276Z,11880.00
2022-08-26T10:40:26.305Z,11908.00
2022-08-26T10:41:26.358Z,11896.00
2022-08-26T10:42:26.245Z,11844.00
2022-08-26T10:43:26.252Z,11868.00
2022-08-26T10:44:26.238Z,11828.00
2022-08-26T10:45:26.231Z,11848.00
2022-08-26T10:46:27.361Z,11776.00
2022-08-26T10:47:26.226Z,11800.00
2022-08-26T10:48:26.200Z,11816.00
2022-08-26T10:49:27.190Z,11784.00
2022-08-26T10:50:26.246Z,11816.00
2022-08-26T10:51:26.177Z,11716.00
2022-08-26T10:52:29.441Z,11836.00
2022-08-26T10:53:26.482Z,11848.00
2022-08-26T10:54:26.152Z,11848.00
2022-08-26T10:55:26.146Z,11896.00
2022-08-26T10:56:26.134Z,11920.00
2022-08-26T10:57:26.145Z,11924.00
2022-08-26T10:58:26.689Z,11988.00
2022-08-26T10:59:26.107Z,11964.00
2022-08-26T11:00:27.438Z,11980.00
2022-08-26T11:01:26.112Z,12008.00
2022-08-26T11:02:26.092Z,11812.00
2022-08-26T11:03:26.064Z,12004.00
2022-08-26T11:04:26.127Z,11908.00
2022-08-26T11:05:26.057Z,11828.00
2022-08-26T11:06:26.045Z,11096.00
2022-08-26T11:07:26.047Z,9444.00
2022-08-26T11:08:26.019Z,10032.00
2022-08-26T11:09:26.012Z,11312.00
2022-08-26T11:10:25.998Z,11892.00
2022-08-26T11:11:25.988Z,12040.00
2022-08-26T11:12:25.995Z,12168.00
2022-08-26T11:13:25.971Z,12268.00
2022-08-26T11:14:29.113Z,12316.00
2022-08-26T11:15:25.970Z,12352.00
2022-08-26T11:16:25.984Z,12372.00
2022-08-26T11:17:25.984Z,12368.00
2022-08-26T11:18:25.942Z,12388.00
2022-08-26T11:19:26.352Z,12452.00
2022-08-26T11:20:25.905Z,12460.00
2022-08-26T11:21:25.887Z,12420.00
2022-08-26T11:22:25.904Z,12520.00
2022-08-26T11:23:25.875Z,12700.00
2022-08-26T11:24:25.865Z,12832.00
2022-08-26T11:25:29.895Z,12948.00
2022-08-26T11:26:36.055Z,12996.00
2022-08-26T11:27:26.878Z,13056.00
2022-08-26T11:28:25.844Z,13088.00
2022-08-26T11:29:25.833Z,13064.00
2022-08-26T11:30:25.830Z,12980.00
2022-08-26T11:31:25.885Z,13012.00
2022-08-26T11:32:25.907Z,13092.00
2022-08-26T11:33:25.781Z,13136.00
2022-08-26T11:34:25.773Z,13224.00
2022-08-26T11:35:25.774Z,13204.00
2022-08-26T11:36:25.776Z,13236.00
2022-08-26T11:37:25.790Z,13296.00
2022-08-26T11:38:25.747Z,12956.00
2022-08-26T11:39:25.744Z,12984.00
2022-08-26T11:40:25.770Z,12924.00
2022-08-26T11:41:25.777Z,12636.00
2022-08-26T11:42:27.726Z,12668.00
2022-08-26T11:43:25.690Z,12252.00
2022-08-26T11:44:25.688Z,12244.00
2022-08-26T11:45:25.705Z,12108.00
2022-08-26T11:46:25.662Z,11416.00
2022-08-26T11:47:25.683Z,9884.00
2022-08-26T11:48:25.655Z,9920.00
2022-08-26T11:49:25.632Z,10544.00
2022-08-26T11:50:25.647Z,11792.00
2022-08-26T11:51:25.614Z,11828.00
2022-08-26T11:52:25.621Z,11364.00
2022-08-26T11:53:25.618Z,11660.00
2022-08-26T11:54:32.721Z,11748.00
2022-08-26T11:55:26.588Z,11652.00
2022-08-26T11:56:25.762Z,11620.00
2022-08-26T11:57:26.583Z,11660.00
2022-08-26T11:58:25.577Z,11700.00
2022-08-26T11:59:25.594Z,11736.00
2022-08-26T12:00:25.543Z,11704.00
2022-08-26T12:01:25.523Z,11748.00
2022-08-26T12:02:25.542Z,11792.00
2022-08-26T12:03:25.605Z,11676.00
2022-08-26T12:04:25.555Z,11376.00
2022-08-26T12:05:25.495Z,11100.00
2022-08-26T12:07:25.509Z,10592.00
2022-08-26T12:08:25.952Z,10384.00
2022-08-26T12:09:25.442Z,10256.00
2022-08-26T12:10:25.460Z,10168.00
2022-08-26T12:11:25.450Z,10156.00
2022-08-26T12:12:25.449Z,10108.00
2022-08-26T12:13:26.399Z,10160.00
2022-08-26T12:14:25.410Z,10252.00
2022-08-26T12:15:25.388Z,10424.00
2022-08-26T12:16:25.508Z,10552.00
2022-08-26T12:17:25.403Z,10672.00
2022-08-26T12:18:29.487Z,10836.00
2022-08-26T12:19:25.377Z,10984.00
2022-08-26T12:20:25.370Z,11220.00
2022-08-26T12:21:25.340Z,11468.00
2022-08-26T12:22:25.359Z,11684.00
2022-08-26T12:23:25.330Z,11868.00
2022-08-26T12:24:25.319Z,12104.00
2022-08-26T12:25:25.328Z,12328.00
2022-08-26T12:26:25.287Z,12544.00
2022-08-26T12:27:25.323Z,12856.00